createdAt,value
2022-08-20T00:00:05.428Z,35.70
2022-08-20T00:02:40.118Z,35.80
2022-08-20T00:05:07.198Z,36.00
2022-08-20T00:07:33.961Z,36.00
2022-08-20T00:10:00.787Z,36.10
2022-08-20T00:14:54.844Z,36.20
2022-08-20T00:17:21.774Z,36.10
2022-08-20T00:19:48.610Z,36.10
2022-08-20T00:22:15.417Z,36.20
2022-08-20T00:24:42.655Z,36.40
2022-08-20T00:27:09.611Z,36.40
2022-08-20T00:29:36.401Z,36.50
2022-08-20T00:32:03.391Z,36.50
2022-08-20T00:34:30.422Z,36.50
2022-08-20T00:36:57.190Z,36.50
2022-08-20T00:39:23.952Z,36.70
2022-08-20T00:44:22.282Z,36.70
2022-08-20T00:46:50.702Z,36.80
2022-08-20T00:49:25.852Z,36.90
2022-08-20T00:52:15.742Z,36.80
2022-08-20T00:54:49.709Z,36.80
2022-08-20T00:57:25.932Z,36.80
2022-08-20T00:59:53.356Z,36.80
2022-08-20T01:02:23.196Z,36.90
2022-08-20T01:04:54.633Z,36.90
2022-08-20T01:07:34.705Z,37.00
2022-08-20T01:10:14.770Z,37.10
2022-08-20T01:12:48.005Z,37.00
2022-08-20T01:15:26.925Z,37.00
2022-08-20T01:18:00.979Z,36.90
2022-08-20T01:23:30.140Z,36.70
2022-08-20T01:26:09.122Z,36.80
2022-08-20T01:28:56.298Z,36.70
2022-08-20T01:31:26.627Z,36.60
2022-08-20T01:33:55.045Z,36.60
2022-08-20T01:36:31.732Z,36.60
2022-08-20T01:38:59.898Z,36.60
2022-08-20T01:41:29.458Z,35.70
2022-08-20T01:43:58.509Z,36.50
2022-08-20T01:46:36.820Z,36.60
2022-08-20T01:49:23.426Z,36.50
2022-08-20T01:51:53.666Z,36.60
2022-08-20T01:54:21.857Z,36.60
2022-08-20T01:56:59.213Z,36.70
2022-08-20T01:59:26.062Z,36.70
2022-08-20T02:01:53.118Z,36.70
2022-08-20T02:04:20.161Z,36.60
2022-08-20T02:06:56.693Z,36.60
2022-08-20T02:09:26.882Z,36.60
2022-08-20T02:11:53.754Z,36.50
2022-08-20T02:14:21.102Z,36.60
2022-08-20T02:16:54.768Z,36.90
2022-08-20T02:19:35.405Z,36.60
2022-08-20T02:22:09.341Z,36.60
2022-08-20T02:24:36.129Z,36.60
2022-08-20T02:29:30.310Z,36.40
2022-08-20T02:32:32.519Z,36.50
2022-08-20T02:34:43.987Z,36.60
2022-08-20T02:37:14.462Z,36.60
2022-08-20T02:39:41.488Z,36.40
2022-08-20T02:42:09.397Z,36.40
2022-08-20T02:44:36.151Z,36.20
2022-08-20T02:47:02.930Z,36.30
2022-08-20T02:49:29.834Z,36.30
2022-08-20T02:51:56.645Z,36.30
2022-08-20T02:54:23.669Z,36.40
2022-08-20T04:31:25.429Z,30.90
2022-08-20T04:33:52.687Z,33.40
2022-08-20T04:36:19.845Z,32.40
2022-08-20T04:38:48.446Z,32.00
2022-08-20T04:41:22.893Z,31.90
2022-08-20T04:43:54.770Z,31.60
2022-08-20T04:46:25.998Z,31.30
2022-08-20T05:21:21.382Z,26.10
2022-08-20T05:23:49.272Z,26.30
2022-08-20T05:26:17.023Z,26.40
2022-08-20T05:28:51.198Z,26.60
2022-08-20T05:31:31.457Z,26.50
